sensor_id;sensor_type;location;lat;lon;timestamp;temperature;humidity
9810;DHT22;4944;52.514;13.192;2023-04-15T00:02:17;9.30;99.90
9810;DHT22;4944;52.514;13.192;2023-04-15T00:04:46;9.30;99.90
9810;DHT22;4944;52.514;13.192;2023-04-15T00:07:13;9.20;99.90
9810;DHT22;4944;52.514;13.192;2023-04-15T00:09:41;9.30;99.90
9810;DHT22;4944;52.514;13.192;2023-04-15T00:12:10;9.30;99.90
9810;DHT22;4944;52.514;13.192;2023-04-15T00:14:37;9.20;99.90
9810;DHT22;4944;52.514;13.192;2023-04-15T00:17:03;9.20;99.90
9810;DHT22;4944;52.514;13.192;2023-04-15T00:19:31;9.30;99.90
9810;DHT22;4944;52.514;13.192;2023-04-15T00:21:59;9.30;99.90
9810;DHT22;4944;52.514;13.192;2023-04-15T00:24:26;9.30;99.90
9810;DHT22;4944;52.514;13.192;2023-04-15T00:26:53;9.30;99.90
9810;DHT22;4944;52.514;13.192;2023-04-15T00:29:20;9.30;99.90
9810;DHT22;4944;52.514;13.192;2023-04-15T00:31:47;9.30;99.90
9810;DHT22;4944;52.514;13.192;2023-04-15T00:34:14;9.30;99.90
9810;DHT22;4944;52.514;13.192;2023-04-15T00:36:41;9.30;99.90
9810;DHT22;4944;52.514;13.192;2023-04-15T00:39:09;9.30;99.90
9810;DHT22;4944;52.514;13.192;2023-04-15T00:41:36;9.30;99.90
9810;DHT22;4944;52.514;13.192;2023-04-15T00:44:05;9.40;99.90
9810;DHT22;4944;52.514;13.192;2023-04-15T00:46:34;9.30;99.90
9810;DHT22;4944;52.514;13.192;2023-04-15T00:49:03;9.30;99.90
9810;DHT22;4944;52.514;13.192;2023-04-15T00:51:30;9.40;99.90
9810;DHT22;4944;52.514;13.192;2023-04-15T00:54:00;9.40;99.90
9810;DHT22;4944;52.514;13.192;2023-04-15T00:56:29;9.40;99.90
9810;DHT22;4944;52.514;13.192;2023-04-15T00:58:57;9.30;99.90
9810;DHT22;4944;52.514;13.192;2023-04-15T01:01:25;9.30;99.90
9810;DHT22;4944;52.514;13.192;2023-04-15T01:03:55;9.40;99.90
9810;DHT22;4944;52.514;13.192;2023-04-15T01:06:23;9.40;99.90
9810;DHT22;4944;52.514;13.192;2023-04-15T01:08:51;9.30;99.90
9810;DHT22;4944;52.514;13.192;2023-04-15T01:11:18;9.30;99.90
9810;DHT22;4944;52.514;13.192;2023-04-15T01:13:47;9.30;99.90
9810;DHT22;4944;52.514;13.192;2023-04-15T01:16:14;9.30;99.90
9810;DHT22;4944;52.514;13.192;2023-04-15T01:18:42;9.30;99.90
9810;DHT22;4944;52.514;13.192;2023-04-15T01:21:09;9.30;99.90
9810;DHT22;4944;52.514;13.192;2023-04-15T01:23:37;9.30;99.90
9810;DHT22;4944;52.514;13.192;2023-04-15T01:26:06;9.30;99.90
9810;DHT22;4944;52.514;13.192;2023-04-15T01:28:33;9.30;99.90
9810;DHT22;4944;52.514;13.192;2023-04-15T01:31:07;9.30;99.90
9810;DHT22;4944;52.514;13.192;2023-04-15T01:33:35;9.30;99.90
9810;DHT22;4944;52.514;13.192;2023-04-15T01:36:03;9.30;99.90
9810;DHT22;4944;52.514;13.192;2023-04-15T01:38:30;9.30;99.90
9810;DHT22;4944;52.514;13.192;2023-04-15T01:40:57;9.30;99.90
9810;DHT22;4944;52.514;13.192;2023-04-15T01:43:26;9.30;99.90
9810;DHT22;4944;52.514;13.192;2023-04-15T01:45:53;9.30;99.90
9810;DHT22;4944;52.514;13.192;2023-04-15T01:48:21;9.30;99.90
9810;DHT22;4944;52.514;13.192;2023-04-15T01:50:48;9.30;99.90
9810;DHT22;4944;52.514;13.192;2023-04-15T01:53:15;9.30;99.90
9810;DHT22;4944;52.514;13.192;2023-04-15T01:55:42;9.30;99.90
9810;DHT22;4944;52.514;13.192;2023-04-15T01:58:09;9.30;99.90
9810;DHT22;4944;52.514;13.192;2023-04-15T02:00:37;9.30;99.90
9810;DHT22;4944;52.514;13.192;2023-04-15T02:03:04;9.30;99.90
9810;DHT22;4944;52.514;13.192;2023-04-15T02:05:31;9.30;99.90
9810;DHT22;4944;52.514;13.192;2023-04-15T02:07:58;9.30;99.90
9810;DHT22;4944;52.514;13.192;2023-04-15T02:10:25;9.30;99.90
9810;DHT22;4944;52.514;13.192;2023-04-15T02:12:52;9.30;99.90
9810;DHT22;4944;52.514;13.192;2023-04-15T02:15:19;9.30;99.90
9810;DHT22;4944;52.514;13.192;2023-04-15T02:17:48;9.30;99.90
9810;DHT22;4944;52.514;13.192;2023-04-15T02:20:15;9.30;99.90
9810;DHT22;4944;52.514;13.192;2023-04-15T02:22:43;9.30;99.90
9810;DHT22;4944;52.514;13.192;2023-04-15T02:25:10;9.30;99.90
9810;DHT22;4944;52.514;13.192;2023-04-15T02:27:37;9.30;99.90
9810;DHT22;4944;52.514;13.192;2023-04-15T02:30:05;9.30;99.90
9810;DHT22;4944;52.514;13.192;2023-04-15T02:32:33;9.30;99.90
9810;DHT22;4944;52.514;13.192;2023-04-15T02:35:04;9.40;99.90
9810;DHT22;4944;52.514;13.192;2023-04-15T02:37:35;9.30;99.90
9810;DHT22;4944;52.514;13.192;2023-04-15T02:40:07;9.30;99.90
9810;DHT22;4944;52.514;13.192;2023-04-15T02:42:34;9.30;99.90
9810;DHT22;4944;52.514;13.192;2023-04-15T02:45:01;9.30;99.90
9810;DHT22;4944;52.514;13.192;2023-04-15T02:47:27;9.30;99.90
9810;DHT22;4944;52.514;13.192;2023-04-15T02:49:54;9.30;99.90
9810;DHT22;4944;52.514;13.192;2023-04-15T02:52:24;9.30;99.90
9810;DHT22;4944;52.514;13.192;2023-04-15T02:54:51;9.30;99.90
9810;DHT22;4944;52.514;13.192;2023-04-15T02:57:22;9.30;99.90
9810;DHT22;4944;52.514;13.192;2023-04-15T02:59:48;9.30;99.90
9810;DHT22;4944;52.514;13.192;2023-04-15T03:02:15;9.30;99.90
9810;DHT22;4944;52.514;13.192;2023-04-15T03:04:42;9.30;99.90
9810;DHT22;4944;52.514;13.192;2023-04-15T03:07:09;9.30;99.90
9810;DHT22;4944;52.514;13.192;2023-04-15T03:09:37;9.20;99.90
9810;DHT22;4944;52.514;13.192;2023-04-15T03:12:06;9.20;99.90
9810;DHT22;4944;52.514;13.192;2023-04-15T03:14:33;9.20;99.90
9810;DHT22;4944;52.514;13.192;2023-04-15T03:17:00;9.20;99.90
9810;DHT22;4944;52.514;13.192;2023-04-15T03:19:26;9.20;99.90
9810;DHT22;4944;52.514;13.192;2023-04-15T03:21:53;9.20;99.90
9810;DHT22;4944;52.514;13.192;2023-04-15T03:24:20;9.20;99.90
9810;DHT22;4944;52.514;13.192;2023-04-15T03:26:49;9.20;99.90
9810;DHT22;4944;52.514;13.192;2023-04-15T03:29:16;9.20;99.90
9810;DHT22;4944;52.514;13.192;2023-04-15T03:31:43;9.20;99.90
9810;DHT22;4944;52.514;13.192;2023-04-15T03:34:10;9.20;99.90
9810;DHT22;4944;52.514;13.192;2023-04-15T03:36:36;9.20;99.90
9810;DHT22;4944;52.514;13.192;2023-04-15T03:39:03;9.20;99.90
9810;DHT22;4944;52.514;13.192;2023-04-15T03:41:30;9.20;99.90
9810;DHT22;4944;52.514;13.192;2023-04-15T03:43:59;9.20;99.90
9810;DHT22;4944;52.514;13.192;2023-04-15T03:46:26;9.20;99.90
9810;DHT22;4944;52.514;13.192;2023-04-15T03:48:53;9.20;99.90
9810;DHT22;4944;52.514;13.192;2023-04-15T03:51:20;9.20;99.90
9810;DHT22;4944;52.514;13.192;2023-04-15T03:53:47;9.20;99.90
9810;DHT22;4944;52.514;13.192;2023-04-15T03:56:14;9.20;99.90
9810;DHT22;4944;52.514;13.192;2023-04-15T03:58:41;9.20;99.90
9810;DHT22;4944;52.514;13.192;2023-04-15T04:01:09;9.20;99.90
9810;DHT22;4944;52.514;13.192;2023-04-15T04:03:36;9.20;99.90
9810;DHT22;4944;52.514;13.192;2023-04-15T04:06:03;9.20;99.90
9810;DHT22;4944;52.514;13.192;2023-04-15T04:08:30;9.20;99.90
9810;DHT22;4944;52.514;13.192;2023-04-15T04:10:57;9.20;99.90
9810;DHT22;4944;52.514;13.192;2023-04-15T04:13:24;9.20;99.90
9810;DHT22;4944;52.514;13.192;2023-04-15T04:15:51;9.20;99.90
9810;DHT22;4944;52.514;13.192;2023-04-15T04:18:19;9.20;99.90
9810;DHT22;4944;52.514;13.192;2023-04-15T04:20:46;9.20;99.90
9810;DHT22;4944;52.514;13.192;2023-04-15T04:23:13;9.20;99.90
9810;DHT22;4944;52.514;13.192;2023-04-15T04:25:40;9.20;99.90
9810;DHT22;4944;52.514;13.192;2023-04-15T04:28:08;9.20;99.90
9810;DHT22;4944;52.514;13.192;2023-04-15T04:30:36;9.20;99.90
9810;DHT22;4944;52.514;13.192;2023-04-15T04:33:03;9.20;99.90
9810;DHT22;4944;52.514;13.192;2023-04-15T04:35:31;9.20;99.90
9810;DHT22;4944;52.514;13.192;2023-04-15T04:38:02;9.20;99.90
9810;DHT22;4944;52.514;13.192;2023-04-15T04:40:29;9.20;99.90
9810;DHT22;4944;52.514;13.192;2023-04-15T04:42:55;9.20;99.90
9810;DHT22;4944;52.514;13.192;2023-04-15T04:45:22;9.20;99.90
9810;DHT22;4944;52.514;13.192;2023-04-15T04:47:49;9.20;99.90
9810;DHT22;4944;52.514;13.192;2023-04-15T04:50:16;9.20;99.90
9810;DHT22;4944;52.514;13.192;2023-04-15T04:52:44;9.20;99.90
9810;DHT22;4944;52.514;13.192;2023-04-15T04:55:11;9.30;99.90
9810;DHT22;4944;52.514;13.192;2023-04-15T04:57:38;9.20;99.90
9810;DHT22;4944;52.514;13.192;2023-04-15T05:00:06;9.20;99.90
9810;DHT22;4944;52.514;13.192;2023-04-15T05:02:34;9.30;99.90
9810;DHT22;4944;52.514;13.192;2023-04-15T05:05:01;9.30;99.90
9810;DHT22;4944;52.514;13.192;2023-04-15T05:07:28;9.30;99.90
9810;DHT22;4944;52.514;13.192;2023-04-15T05:09:56;9.30;99.90
9810;DHT22;4944;52.514;13.192;2023-04-15T05:12:23;9.30;99.90
9810;DHT22;4944;52.514;13.192;2023-04-15T05:14:50;9.30;99.90
9810;DHT22;4944;52.514;13.192;2023-04-15T05:17:17;9.30;99.90
9810;DHT22;4944;52.514;13.192;2023-04-15T05:19:43;9.30;99.90
9810;DHT22;4944;52.514;13.192;2023-04-15T05:22:10;9.30;99.90
9810;DHT22;4944;52.514;13.192;2023-04-15T05:24:37;9.30;99.90
9810;DHT22;4944;52.514;13.192;2023-04-15T05:27:05;9.30;99.90
9810;DHT22;4944;52.514;13.192;2023-04-15T05:29:35;9.30;99.90
9810;DHT22;4944;52.514;13.192;2023-04-15T05:32:01;9.30;99.90
9810;DHT22;4944;52.514;13.192;2023-04-15T05:34:28;9.30;99.90
9810;DHT22;4944;52.514;13.192;2023-04-15T05:36:55;9.40;99.90
9810;DHT22;4944;52.514;13.192;2023-04-15T05:39:22;9.40;99.90
9810;DHT22;4944;52.514;13.192;2023-04-15T05:41:49;9.40;99.90
9810;DHT22;4944;52.514;13.192;2023-04-15T05:44:18;9.40;99.90
9810;DHT22;4944;52.514;13.192;2023-04-15T05:46:44;9.50;99.90
9810;DHT22;4944;52.514;13.192;2023-04-15T05:49:11;9.40;99.90
9810;DHT22;4944;52.514;13.192;2023-04-15T05:51:38;9.40;99.90
9810;DHT22;4944;52.514;13.192;2023-04-15T05:54:05;9.50;99.90
9810;DHT22;4944;52.514;13.192;2023-04-15T05:56:32;9.50;99.90
9810;DHT22;4944;52.514;13.192;2023-04-15T05:58:59;9.50;99.90
9810;DHT22;4944;52.514;13.192;2023-04-15T06:01:28;9.50;99.90
9810;DHT22;4944;52.514;13.192;2023-04-15T06:03:55;9.50;99.90
9810;DHT22;4944;52.514;13.192;2023-04-15T06:06:22;9.50;99.90
9810;DHT22;4944;52.514;13.192;2023-04-15T06:08:48;9.50;99.90
9810;DHT22;4944;52.514;13.192;2023-04-15T06:11:16;9.60;99.90
9810;DHT22;4944;52.514;13.192;2023-04-15T06:13:42;9.60;99.90
9810;DHT22;4944;52.514;13.192;2023-04-15T06:16:09;9.60;99.90
9810;DHT22;4944;52.514;13.192;2023-04-15T06:18:38;9.60;99.90
9810;DHT22;4944;52.514;13.192;2023-04-15T06:21:05;9.70;99.90
9810;DHT22;4944;52.514;13.192;2023-04-15T06:23:33;9.70;99.90
9810;DHT22;4944;52.514;13.192;2023-04-15T06:26:00;9.70;99.90
9810;DHT22;4944;52.514;13.192;2023-04-15T06:28:27;9.80;99.90
9810;DHT22;4944;52.514;13.192;2023-04-15T06:30:54;9.80;99.90
9810;DHT22;4944;52.514;13.192;2023-04-15T06:33:21;9.80;99.90
9810;DHT22;4944;52.514;13.192;2023-04-15T06:35:50;9.80;99.90
9810;DHT22;4944;52.514;13.192;2023-04-15T06:38:17;9.80;99.90
9810;DHT22;4944;52.514;13.192;2023-04-15T06:40:43;9.80;99.90
9810;DHT22;4944;52.514;13.192;2023-04-15T06:43:10;9.90;99.90
9810;DHT22;4944;52.514;13.192;2023-04-15T06:45:37;9.90;99.90
9810;DHT22;4944;52.514;13.192;2023-04-15T06:48:04;9.90;99.90
9810;DHT22;4944;52.514;13.192;2023-04-15T06:50:31;9.90;99.90
9810;DHT22;4944;52.514;13.192;2023-04-15T06:53:01;9.90;99.90
9810;DHT22;4944;52.514;13.192;2023-04-15T06:55:28;9.90;99.90
9810;DHT22;4944;52.514;13.192;2023-04-15T06:57:56;10.00;99.90
9810;DHT22;4944;52.514;13.192;2023-04-15T07:00:23;10.00;99.90
9810;DHT22;4944;52.514;13.192;2023-04-15T07:02:50;10.10;99.90
9810;DHT22;4944;52.514;13.192;2023-04-15T07:05:17;10.20;99.90
9810;DHT22;4944;52.514;13.192;2023-04-15T07:07:44;10.20;99.90
9810;DHT22;4944;52.514;13.192;2023-04-15T07:10:13;10.20;99.90
9810;DHT22;4944;52.514;13.192;2023-04-15T07:12:40;10.30;99.90
9810;DHT22;4944;52.514;13.192;2023-04-15T07:15:08;10.30;99.90
9810;DHT22;4944;52.514;13.192;2023-04-15T07:17:35;10.40;99.90
9810;DHT22;4944;52.514;13.192;2023-04-15T07:20:02;10.50;99.90
9810;DHT22;4944;52.514;13.192;2023-04-15T07:22:29;10.50;99.90
9810;DHT22;4944;52.514;13.192;2023-04-15T07:24:56;10.60;99.90
9810;DHT22;4944;52.514;13.192;2023-04-15T07:27:24;10.60;99.90
9810;DHT22;4944;52.514;13.192;2023-04-15T07:29:51;10.70;99.90
9810;DHT22;4944;52.514;13.192;2023-04-15T07:32:18;10.70;99.90
9810;DHT22;4944;52.514;13.192;2023-04-15T07:34:45;10.70;99.90
9810;DHT22;4944;52.514;13.192;2023-04-15T07:37:12;10.80;99.90
9810;DHT22;4944;52.514;13.192;2023-04-15T07:39:39;10.80;99.90
9810;DHT22;4944;52.514;13.192;2023-04-15T07:42:07;10.80;99.90
9810;DHT22;4944;52.514;13.192;2023-04-15T07:44:35;10.80;99.90
9810;DHT22;4944;52.514;13.192;2023-04-15T07:47:02;10.70;99.90
9810;DHT22;4944;52.514;13.192;2023-04-15T07:49:29;10.70;99.90
9810;DHT22;4944;52.514;13.192;2023-04-15T07:51:56;10.70;99.90
9810;DHT22;4944;52.514;13.192;2023-04-15T07:54:24;10.70;99.90
9810;DHT22;4944;52.514;13.192;2023-04-15T07:56:51;10.70;99.90
9810;DHT22;4944;52.514;13.192;2023-04-15T07:59:18;10.70;99.90
9810;DHT22;4944;52.514;13.192;2023-04-15T08:01:47;10.60;99.90
9810;DHT22;4944;52.514;13.192;2023-04-15T08:04:14;10.60;99.90
9810;DHT22;4944;52.514;13.192;2023-04-15T08:06:41;10.60;99.90
9810;DHT22;4944;52.514;13.192;2023-04-15T08:09:08;10.60;99.90
9810;DHT22;4944;52.514;13.192;2023-04-15T08:11:35;10.60;99.90
9810;DHT22;4944;52.514;13.192;2023-04-15T08:14:02;10.70;99.90
9810;DHT22;4944;52.514;13.192;2023-04-15T08:16:29;10.60;99.90
9810;DHT22;4944;52.514;13.192;2023-04-15T08:18:58;10.60;99.90
9810;DHT22;4944;52.514;13.192;2023-04-15T08:21:25;10.60;99.90
9810;DHT22;4944;52.514;13.192;2023-04-15T08:23:53;10.60;99.90
9810;DHT22;4944;52.514;13.192;2023-04-15T08:26:20;10.60;99.90
9810;DHT22;4944;52.514;13.192;2023-04-15T08:28:47;10.50;99.90
9810;DHT22;4944;52.514;13.192;2023-04-15T08:31:15;10.50;99.90
9810;DHT22;4944;52.514;13.192;2023-04-15T08:33:43;10.50;99.90
9810;DHT22;4944;52.514;13.192;2023-04-15T08:36:11;10.50;99.90
9810;DHT22;4944;52.514;13.192;2023-04-15T08:38:38;10.50;99.90
9810;DHT22;4944;52.514;13.192;2023-04-15T08:41:09;10.50;99.90
9810;DHT22;4944;52.514;13.192;2023-04-15T08:43:43;10.50;99.90
9810;DHT22;4944;52.514;13.192;2023-04-15T08:46:13;10.50;99.90
9810;DHT22;4944;52.514;13.192;2023-04-15T08:48:41;10.50;99.90
9810;DHT22;4944;52.514;13.192;2023-04-15T08:51:08;10.50;99.90
9810;DHT22;4944;52.514;13.192;2023-04-15T08:53:36;10.50;99.90
9810;DHT22;4944;52.514;13.192;2023-04-15T08:56:04;10.50;99.90
9810;DHT22;4944;52.514;13.192;2023-04-15T08:58:33;10.60;99.90
9810;DHT22;4944;52.514;13.192;2023-04-15T09:01:01;10.60;99.90
9810;DHT22;4944;52.514;13.192;2023-04-15T09:03:29;10.60;99.90
9810;DHT22;4944;52.514;13.192;2023-04-15T09:05:56;10.60;99.90
9810;DHT22;4944;52.514;13.192;2023-04-15T09:08:23;10.60;99.90
9810;DHT22;4944;52.514;13.192;2023-04-15T09:10:53;10.60;99.90
9810;DHT22;4944;52.514;13.192;2023-04-15T09:13:19;10.60;99.90
9810;DHT22;4944;52.514;13.192;2023-04-15T09:15:47;10.60;99.90
9810;DHT22;4944;52.514;13.192;2023-04-15T09:18:26;10.60;99.90
9810;DHT22;4944;52.514;13.192;2023-04-15T09:20:53;10.60;99.90
9810;DHT22;4944;52.514;13.192;2023-04-15T09:23:21;10.60;99.90
9810;DHT22;4944;52.514;13.192;2023-04-15T09:25:48;10.60;99.90
9810;DHT22;4944;52.514;13.192;2023-04-15T09:28:23;10.60;99.90
9810;DHT22;4944;52.514;13.192;2023-04-15T09:30:54;10.60;99.90
9810;DHT22;4944;52.514;13.192;2023-04-15T09:33:22;10.60;99.90
9810;DHT22;4944;52.514;13.192;2023-04-15T09:35:58;10.70;99.90
9810;DHT22;4944;52.514;13.192;2023-04-15T09:38:25;10.70;99.90
9810;DHT22;4944;52.514;13.192;2023-04-15T09:40:53;10.70;99.90
9810;DHT22;4944;52.514;13.192;2023-04-15T09:43:21;10.70;99.90
9810;DHT22;4944;52.514;13.192;2023-04-15T09:45:49;10.70;99.90
9810;DHT22;4944;52.514;13.192;2023-04-15T09:48:19;10.70;99.90
9810;DHT22;4944;52.514;13.192;2023-04-15T09:50:47;10.70;99.90
9810;DHT22;4944;52.514;13.192;2023-04-15T09:53:16;10.80;99.90
9810;DHT22;4944;52.514;13.192;2023-04-15T09:55:45;10.80;99.90
9810;DHT22;4944;52.514;13.192;2023-04-15T09:58:21;10.80;99.90
9810;DHT22;4944;52.514;13.192;2023-04-15T10:00:49;10.80;99.90
9810;DHT22;4944;52.514;13.192;2023-04-15T10:03:19;10.80;99.90
9810;DHT22;4944;52.514;13.192;2023-04-15T10:05:48;10.80;99.90
9810;DHT22;4944;52.514;13.192;2023-04-15T10:08:18;10.80;99.90
9810;DHT22;4944;52.514;13.192;2023-04-15T10:10:45;10.80;99.90
9810;DHT22;4944;52.514;13.192;2023-04-15T10:13:13;10.80;99.90
9810;DHT22;4944;52.514;13.192;2023-04-15T10:15:46;10.80;99.90
9810;DHT22;4944;52.514;13.192;2023-04-15T10:18:15;10.70;99.90
9810;DHT22;4944;52.514;13.192;2023-04-15T10:20:43;10.80;99.90
9810;DHT22;4944;52.514;13.192;2023-04-15T10:23:11;10.80;99.90
9810;DHT22;4944;52.514;13.192;2023-04-15T10:25:38;10.80;99.90
9810;DHT22;4944;52.514;13.192;2023-04-15T10:28:06;10.80;99.90
9810;DHT22;4944;52.514;13.192;2023-04-15T10:30:33;10.80;99.90
9810;DHT22;4944;52.514;13.192;2023-04-15T10:33:02;10.80;99.90
9810;DHT22;4944;52.514;13.192;2023-04-15T10:35:31;10.80;99.90
9810;DHT22;4944;52.514;13.192;2023-04-15T10:37:59;10.80;99.90
9810;DHT22;4944;52.514;13.192;2023-04-15T10:40:27;10.80;99.90
9810;DHT22;4944;52.514;13.192;2023-04-15T10:42:57;10.80;99.90
9810;DHT22;4944;52.514;13.192;2023-04-15T10:45:26;10.80;99.90
9810;DHT22;4944;52.514;13.192;2023-04-15T10:47:56;10.80;99.90
9810;DHT22;4944;52.514;13.192;2023-04-15T10:50:27;10.80;99.90
9810;DHT22;4944;52.514;13.192;2023-04-15T10:52:55;10.80;99.90
9810;DHT22;4944;52.514;13.192;2023-04-15T10:55:24;10.80;99.90
9810;DHT22;4944;52.514;13.192;2023-04-15T10:57:52;10.80;99.90
9810;DHT22;4944;52.514;13.192;2023-04-15T11:00:21;10.80;99.90
9810;DHT22;4944;52.514;13.192;2023-04-15T11:02:52;10.80;99.90
9810;DHT22;4944;52.514;13.192;2023-04-15T11:05:21;10.80;99.90
9810;DHT22;4944;52.514;13.192;2023-04-15T11:07:51;10.80;99.90
9810;DHT22;4944;52.514;13.192;2023-04-15T11:10:51;10.80;99.90
9810;DHT22;4944;52.514;13.192;2023-04-15T11:13:21;10.90;99.90
9810;DHT22;4944;52.514;13.192;2023-04-15T11:15:49;10.90;99.90
9810;DHT22;4944;52.514;13.192;2023-04-15T11:18:18;10.90;99.90
9810;DHT22;4944;52.514;13.192;2023-04-15T11:20:47;10.90;99.90
9810;DHT22;4944;52.514;13.192;2023-04-15T11:23:17;10.90;99.90
9810;DHT22;4944;52.514;13.192;2023-04-15T11:25:45;11.00;99.90
9810;DHT22;4944;52.514;13.192;2023-04-15T11:28:13;11.00;99.90
9810;DHT22;4944;52.514;13.192;2023-04-15T11:30:41;10.90;99.90
9810;DHT22;4944;52.514;13.192;2023-04-15T11:33:11;11.00;99.90
9810;DHT22;4944;52.514;13.192;2023-04-15T11:35:40;10.90;99.90
9810;DHT22;4944;52.514;13.192;2023-04-15T11:38:09;10.90;99.90
9810;DHT22;4944;52.514;13.192;2023-04-15T11:40:38;10.90;99.90
9810;DHT22;4944;52.514;13.192;2023-04-15T11:43:06;11.00;99.90
9810;DHT22;4944;52.514;13.192;2023-04-15T11:45:34;11.00;99.90
9810;DHT22;4944;52.514;13.192;2023-04-15T11:48:05;11.00;99.90
9810;DHT22;4944;52.514;13.192;2023-04-15T11:50:33;11.00;99.90
9810;DHT22;4944;52.514;13.192;2023-04-15T11:53:01;11.00;99.90
9810;DHT22;4944;52.514;13.192;2023-04-15T11:55:29;11.00;99.90
9810;DHT22;4944;52.514;13.192;2023-04-15T11:58:08;11.00;99.90
9810;DHT22;4944;52.514;13.192;2023-04-15T12:00:35;11.00;99.90
9810;DHT22;4944;52.514;13.192;2023-04-15T12:03:13;11.00;99.90
9810;DHT22;4944;52.514;13.192;2023-04-15T12:06:08;11.00;99.90
9810;DHT22;4944;52.514;13.192;2023-04-15T12:08:56;11.00;99.90
9810;DHT22;4944;52.514;13.192;2023-04-15T12:11:37;11.00;99.90
9810;DHT22;4944;52.514;13.192;2023-04-15T12:14:11;11.00;99.90
9810;DHT22;4944;52.514;13.192;2023-04-15T12:16:40;11.00;99.90
9810;DHT22;4944;52.514;13.192;2023-04-15T12:19:10;11.00;99.90
9810;DHT22;4944;52.514;13.192;2023-04-15T12:21:38;11.00;99.90
9810;DHT22;4944;52.514;13.192;2023-04-15T12:24:06;10.90;99.90
9810;DHT22;4944;52.514;13.192;2023-04-15T12:26:35;10.90;99.90
9810;DHT22;4944;52.514;13.192;2023-04-15T12:29:05;11.00;99.90
9810;DHT22;4944;52.514;13.192;2023-04-15T12:31:34;11.00;99.90
9810;DHT22;4944;52.514;13.192;2023-04-15T12:34:02;11.00;99.90
9810;DHT22;4944;52.514;13.192;2023-04-15T12:36:30;11.00;99.90
9810;DHT22;4944;52.514;13.192;2023-04-15T12:39:01;11.00;99.90
9810;DHT22;4944;52.514;13.192;2023-04-15T12:41:29;11.10;99.90
9810;DHT22;4944;52.514;13.192;2023-04-15T12:43:56;11.00;99.90
9810;DHT22;4944;52.514;13.192;2023-04-15T12:46:23;11.10;99.90
9810;DHT22;4944;52.514;13.192;2023-04-15T12:48:51;11.10;99.90
9810;DHT22;4944;52.514;13.192;2023-04-15T12:51:19;11.10;99.90
9810;DHT22;4944;52.514;13.192;2023-04-15T12:53:46;11.10;99.90
9810;DHT22;4944;52.514;13.192;2023-04-15T12:56:14;11.10;99.90
9810;DHT22;4944;52.514;13.192;2023-04-15T12:58:41;11.10;99.90
9810;DHT22;4944;52.514;13.192;2023-04-15T13:01:08;11.10;99.90
9810;DHT22;4944;52.514;13.192;2023-04-15T13:03:38;11.10;99.90
9810;DHT22;4944;52.514;13.192;2023-04-15T13:06:06;11.20;99.90
9810;DHT22;4944;52.514;13.192;2023-04-15T13:08:33;11.10;99.90
9810;DHT22;4944;52.514;13.192;2023-04-15T13:11:00;11.10;99.90
9810;DHT22;4944;52.514;13.192;2023-04-15T13:13:27;11.10;99.90
9810;DHT22;4944;52.514;13.192;2023-04-15T13:15:56;11.10;99.90
9810;DHT22;4944;52.514;13.192;2023-04-15T13:18:26;11.10;99.90
9810;DHT22;4944;52.514;13.192;2023-04-15T13:20:53;11.10;99.90
9810;DHT22;4944;52.514;13.192;2023-04-15T13:23:22;11.10;99.90
9810;DHT22;4944;52.514;13.192;2023-04-15T13:25:49;11.10;99.90
9810;DHT22;4944;52.514;13.192;2023-04-15T13:28:16;11.20;99.90
9810;DHT22;4944;52.514;13.192;2023-04-15T13:30:43;11.20;99.90
9810;DHT22;4944;52.514;13.192;2023-04-15T13:33:11;11.10;99.90
9810;DHT22;4944;52.514;13.192;2023-04-15T13:35:39;11.10;99.90
9810;DHT22;4944;52.514;13.192;2023-04-15T13:38:06;11.10;99.90
9810;DHT22;4944;52.514;13.192;2023-04-15T13:40:34;11.10;99.90
9810;DHT22;4944;52.514;13.192;2023-04-15T13:43:01;11.10;99.90
9810;DHT22;4944;52.514;13.192;2023-04-15T13:45:28;11.10;99.90
9810;DHT22;4944;52.514;13.192;2023-04-15T13:47:55;11.10;99.90
9810;DHT22;4944;52.514;13.192;2023-04-15T13:50:22;11.10;99.90
9810;DHT22;4944;52.514;13.192;2023-04-15T13:52:49;11.10;99.90
9810;DHT22;4944;52.514;13.192;2023-04-15T13:55:16;11.10;99.90
9810;DHT22;4944;52.514;13.192;2023-04-15T13:57:44;11.10;99.90
9810;DHT22;4944;52.514;13.192;2023-04-15T14:00:12;11.00;99.90
9810;DHT22;4944;52.514;13.192;2023-04-15T14:02:40;11.10;99.90
9810;DHT22;4944;52.514;13.192;2023-04-15T14:05:07;11.10;99.90
9810;DHT22;4944;52.514;13.192;2023-04-15T14:07:34;11.10;99.90
9810;DHT22;4944;52.514;13.192;2023-04-15T14:10:02;11.10;99.90
9810;DHT22;4944;52.514;13.192;2023-04-15T14:12:29;11.10;99.90
9810;DHT22;4944;52.514;13.192;2023-04-15T14:14:57;11.10;99.90
9810;DHT22;4944;52.514;13.192;2023-04-15T14:17:24;11.10;99.90
9810;DHT22;4944;52.514;13.192;2023-04-15T14:19:51;11.10;99.90
9810;DHT22;4944;52.514;13.192;2023-04-15T14:22:18;11.10;99.90
9810;DHT22;4944;52.514;13.192;2023-04-15T14:24:45;11.00;99.90
9810;DHT22;4944;52.514;13.192;2023-04-15T14:27:13;11.10;99.90
9810;DHT22;4944;52.514;13.192;2023-04-15T14:29:41;11.00;99.90
9810;DHT22;4944;52.514;13.192;2023-04-15T14:32:09;11.00;99.90
9810;DHT22;4944;52.514;13.192;2023-04-15T14:34:36;11.00;99.90
9810;DHT22;4944;52.514;13.192;2023-04-15T14:37:03;11.10;99.90
9810;DHT22;4944;52.514;13.192;2023-04-15T14:39:30;11.00;99.90
9810;DHT22;4944;52.514;13.192;2023-04-15T14:41:57;11.00;99.90
9810;DHT22;4944;52.514;13.192;2023-04-15T14:44:24;11.10;99.90
9810;DHT22;4944;52.514;13.192;2023-04-15T14:46:51;11.10;99.90
9810;DHT22;4944;52.514;13.192;2023-04-15T14:49:20;11.10;99.90
9810;DHT22;4944;52.514;13.192;2023-04-15T14:51:48;11.10;99.90
9810;DHT22;4944;52.514;13.192;2023-04-15T14:54:15;11.10;99.90
9810;DHT22;4944;52.514;13.192;2023-04-15T14:56:42;11.10;99.90
9810;DHT22;4944;52.514;13.192;2023-04-15T14:59:09;11.10;99.90
9810;DHT22;4944;52.514;13.192;2023-04-15T15:01:36;11.10;99.90
9810;DHT22;4944;52.514;13.192;2023-04-15T15:04:03;11.10;99.90
9810;DHT22;4944;52.514;13.192;2023-04-15T15:06:31;11.10;99.90
9810;DHT22;4944;52.514;13.192;2023-04-15T15:08:58;11.10;99.90
9810;DHT22;4944;52.514;13.192;2023-04-15T15:11:26;11.10;99.90
9810;DHT22;4944;52.514;13.192;2023-04-15T15:13:54;11.10;99.90
9810;DHT22;4944;52.514;13.192;2023-04-15T15:16:21;11.10;99.90
9810;DHT22;4944;52.514;13.192;2023-04-15T15:18:49;11.10;99.90
9810;DHT22;4944;52.514;13.192;2023-04-15T15:21:17;11.10;99.90
9810;DHT22;4944;52.514;13.192;2023-04-15T15:23:45;11.10;99.90
9810;DHT22;4944;52.514;13.192;2023-04-15T15:26:13;11.10;99.90
9810;DHT22;4944;52.514;13.192;2023-04-15T15:28:40;11.10;99.90
9810;DHT22;4944;52.514;13.192;2023-04-15T15:31:07;11.10;99.90
9810;DHT22;4944;52.514;13.192;2023-04-15T15:33:34;11.10;99.90
9810;DHT22;4944;52.514;13.192;2023-04-15T15:36:02;11.10;99.90
9810;DHT22;4944;52.514;13.192;2023-04-15T15:38:29;11.10;99.90
9810;DHT22;4944;52.514;13.192;2023-04-15T15:40:57;11.10;99.90
9810;DHT22;4944;52.514;13.192;2023-04-15T15:43:24;11.10;99.90
9810;DHT22;4944;52.514;13.192;2023-04-15T15:45:51;11.10;99.90
9810;DHT22;4944;52.514;13.192;2023-04-15T15:48:20;11.10;99.90
9810;DHT22;4944;52.514;13.192;2023-04-15T15:50:47;11.10;99.90
9810;DHT22;4944;52.514;13.192;2023-04-15T15:53:14;11.10;99.90
9810;DHT22;4944;52.514;13.192;2023-04-15T15:55:45;11.10;99.90
9810;DHT22;4944;52.514;13.192;2023-04-15T15:58:13;11.10;99.90